createdAt,value
2018-02-24T00:00:45.135Z,1017.65
2018-02-24T00:01:45.119Z,1017.65
2018-02-24T00:02:45.105Z,1017.63
2018-02-24T00:03:45.093Z,1017.64
2018-02-24T00:04:45.079Z,1017.64
2018-02-24T00:05:45.065Z,1017.61
2018-02-24T00:06:45.053Z,1017.67
2018-02-24T00:07:45.036Z,1017.61
2018-02-24T00:08:45.026Z,1017.60
2018-02-24T00:09:45.012Z,1017.60
2018-02-24T00:10:44.998Z,1017.63
2018-02-24T00:11:44.979Z,1017.65
2018-02-24T00:12:44.963Z,1017.59
2018-02-24T00:13:44.948Z,1017.69
2018-02-24T00:14:44.936Z,1017.59
2018-02-24T00:15:44.924Z,1017.62
2018-02-24T00:16:44.911Z,1017.62
2018-02-24T00:17:44.898Z,1017.67
2018-02-24T00:18:44.883Z,1017.61
2018-02-24T00:19:44.864Z,1017.61
2018-02-24T00:20:44.850Z,1017.65
2018-02-24T00:21:44.836Z,1017.69
2018-02-24T00:22:44.822Z,1017.64
2018-02-24T00:23:44.807Z,1017.65
2018-02-24T00:24:44.793Z,1017.62
2018-02-24T00:25:44.779Z,1017.71
2018-02-24T00:26:44.774Z,1017.61
2018-02-24T00:27:44.753Z,1017.67
2018-02-24T00:28:44.738Z,1017.60
2018-02-24T00:29:44.726Z,1017.64
2018-02-24T00:30:44.711Z,1017.62
2018-02-24T00:31:44.696Z,1017.66
2018-02-24T00:32:44.683Z,1017.62
2018-02-24T00:33:44.669Z,1017.73
2018-02-24T00:34:44.655Z,1017.73
2018-02-24T00:35:44.638Z,1017.73
2018-02-24T00:36:44.623Z,1017.68
2018-02-24T00:37:44.609Z,1017.69
2018-02-24T00:38:44.596Z,1017.65
2018-02-24T00:39:44.580Z,1017.59
2018-02-24T00:40:44.566Z,1017.62
2018-02-24T00:41:44.552Z,1017.61
2018-02-24T00:42:44.537Z,1017.62
2018-02-24T00:43:44.526Z,1017.60
2018-02-24T00:44:44.512Z,1017.62
2018-02-24T00:45:44.498Z,1017.70
2018-02-24T00:46:44.484Z,1017.63
2018-02-24T00:47:44.470Z,1017.55
2018-02-24T00:48:44.455Z,1017.59
2018-02-24T00:49:44.440Z,1017.59
2018-02-24T00:50:44.427Z,1017.60
2018-02-24T00:51:44.410Z,1017.63
2018-02-24T00:52:44.395Z,1017.66
2018-02-24T00:53:44.381Z,1017.62
2018-02-24T00:54:44.368Z,1017.57
2018-02-24T00:55:44.354Z,1017.65
2018-02-24T00:56:44.338Z,1017.66
2018-02-24T00:57:44.323Z,1017.68
2018-02-24T00:58:44.310Z,1017.67
2018-02-24T00:59:44.297Z,1017.66
2018-02-24T01:00:44.284Z,1017.67
2018-02-24T01:01:44.268Z,1017.63
2018-02-24T01:02:44.256Z,1017.62
2018-02-24T01:03:44.241Z,1017.64
2018-02-24T01:04:44.227Z,1017.60
2018-02-24T01:05:44.213Z,1017.65
2018-02-24T01:06:44.201Z,1017.66
2018-02-24T01:07:44.181Z,1017.72
2018-02-24T01:08:44.166Z,1017.69
2018-02-24T01:09:44.152Z,1017.73
2018-02-24T01:10:44.138Z,1017.68
2018-02-24T01:11:44.124Z,1017.69
2018-02-24T01:12:44.109Z,1017.68
2018-02-24T01:13:44.095Z,1017.73
2018-02-24T01:14:44.082Z,1017.71
2018-02-24T01:15:44.076Z,1017.70
2018-02-24T01:16:44.054Z,1017.67
2018-02-24T01:17:44.041Z,1017.69
2018-02-24T01:18:44.027Z,1017.60
2018-02-24T01:19:44.008Z,1017.69
2018-02-24T01:20:43.996Z,1017.66
2018-02-24T01:21:43.980Z,1017.63
2018-02-24T01:22:43.967Z,1017.67
2018-02-24T01:23:43.955Z,1017.63
2018-02-24T01:24:43.941Z,1017.64
2018-02-24T01:25:43.926Z,1017.67
2018-02-24T01:26:43.915Z,1017.64
2018-02-24T01:27:43.896Z,1017.65
2018-02-24T01:28:43.887Z,1017.69
2018-02-24T01:29:43.869Z,1017.66
2018-02-24T01:30:43.856Z,1017.61
2018-02-24T01:31:43.836Z,1017.68
2018-02-24T01:32:43.824Z,1017.61
2018-02-24T01:33:43.811Z,1017.64
2018-02-24T01:34:43.795Z,1017.67
2018-02-24T01:35:43.780Z,1017.68
2018-02-24T01:36:43.766Z,1017.66
2018-02-24T01:37:43.753Z,1017.70
2018-02-24T01:38:43.739Z,1017.64
2018-02-24T01:39:43.725Z,1017.63
2018-02-24T01:40:43.712Z,1017.63
2018-02-24T01:41:43.698Z,1017.69
2018-02-24T01:42:43.687Z,1017.68
2018-02-24T01:43:43.669Z,1017.70
2018-02-24T01:44:43.655Z,1017.68
2018-02-24T01:45:43.641Z,1017.69
2018-02-24T01:46:43.626Z,1017.65
2018-02-24T01:47:43.608Z,1017.69
2018-02-24T01:48:43.594Z,1017.65
2018-02-24T01:49:43.580Z,1017.68
2018-02-24T01:50:43.567Z,1017.74
2018-02-24T01:51:43.553Z,1017.73
2018-02-24T01:52:43.537Z,1017.76
2018-02-24T01:53:43.524Z,1017.69
2018-02-24T01:54:43.508Z,1017.75
2018-02-24T01:55:43.497Z,1017.78
2018-02-24T01:56:43.482Z,1017.78
2018-02-24T01:57:43.468Z,1017.75
2018-02-24T01:58:43.455Z,1017.82
2018-02-24T01:59:43.439Z,1017.78
2018-02-24T02:00:43.425Z,1017.79
2018-02-24T02:01:43.410Z,1017.74
2018-02-24T02:02:43.397Z,1017.80
2018-02-24T02:03:43.378Z,1017.79
2018-02-24T02:04:43.365Z,1017.77
2018-02-24T02:05:43.353Z,1017.78
2018-02-24T02:06:43.336Z,1017.81
2018-02-24T02:07:43.321Z,1017.78
2018-02-24T02:08:43.308Z,1017.77
2018-02-24T02:09:43.293Z,1017.75
2018-02-24T02:10:43.279Z,1017.82
2018-02-24T02:11:43.266Z,1017.81
2018-02-24T02:12:43.253Z,1017.79
2018-02-24T02:13:43.245Z,1017.80
2018-02-24T02:14:43.224Z,1017.85
2018-02-24T02:15:43.208Z,1017.83
2018-02-24T02:16:43.194Z,1017.80
2018-02-24T02:17:43.180Z,1017.81
2018-02-24T02:18:43.166Z,1017.86
2018-02-24T02:19:43.147Z,1017.86
2018-02-24T02:20:43.134Z,1017.89
2018-02-24T02:21:43.120Z,1017.87
2018-02-24T02:22:43.105Z,1017.86
2018-02-24T02:23:43.096Z,1017.91
2018-02-24T02:24:43.080Z,1017.92
2018-02-24T02:25:43.064Z,1017.96
2018-02-24T02:26:43.051Z,1017.97
2018-02-24T02:27:43.035Z,1017.94
2018-02-24T02:28:43.017Z,1017.95
2018-02-24T02:29:43.007Z,1017.97
2018-02-24T02:30:42.989Z,1017.94
2018-02-24T02:31:42.981Z,1017.92
2018-02-24T02:32:42.959Z,1018.00
2018-02-24T02:33:42.946Z,1017.95
2018-02-24T02:34:42.932Z,1017.91
2018-02-24T02:35:42.918Z,1017.94
2018-02-24T02:36:42.904Z,1017.86
2018-02-24T02:37:42.890Z,1017.86
2018-02-24T02:38:42.875Z,1017.92
2018-02-24T02:39:42.861Z,1017.87
2018-02-24T02:40:42.845Z,1017.89
2018-02-24T02:41:42.831Z,1017.83
2018-02-24T02:42:42.819Z,1017.83
2018-02-24T02:43:42.800Z,1017.83
2018-02-24T02:44:42.784Z,1017.84
2018-02-24T02:45:42.770Z,1017.86
2018-02-24T02:46:42.757Z,1017.80
2018-02-24T02:47:42.740Z,1017.79
2018-02-24T02:48:42.728Z,1017.77
2018-02-24T02:49:42.712Z,1017.79
2018-02-24T02:50:42.697Z,1017.84
2018-02-24T02:51:42.685Z,1017.82
2018-02-24T02:52:42.669Z,1017.89
2018-02-24T02:53:42.661Z,1017.85
2018-02-24T02:54:42.643Z,1017.89
2018-02-24T02:55:42.628Z,1017.85
2018-02-24T02:56:42.612Z,1017.87
2018-02-24T02:57:42.598Z,1017.91
2018-02-24T02:58:42.583Z,1017.91
2018-02-24T02:59:42.565Z,1017.94
2018-02-24T03:00:42.551Z,1017.88
2018-02-24T03:01:42.536Z,1017.94
2018-02-24T03:02:42.522Z,1017.93
2018-02-24T03:03:42.508Z,1017.93
2018-02-24T03:04:42.490Z,1017.97
2018-02-24T03:05:42.486Z,1017.98
2018-02-24T03:06:42.463Z,1018.00
2018-02-24T03:07:42.451Z,1017.94
2018-02-24T03:08:42.436Z,1017.98
2018-02-24T03:09:42.422Z,1017.99
2018-02-24T03:10:42.407Z,1017.98
2018-02-24T03:11:42.391Z,1018.01
2018-02-24T03:12:42.376Z,1018.06
2018-02-24T03:13:42.362Z,1018.05
2018-02-24T03:14:42.351Z,1018.02
2018-02-24T03:15:42.330Z,1018.07
2018-02-24T03:16:42.315Z,1018.08
2018-02-24T03:17:42.301Z,1018.07
2018-02-24T03:18:42.287Z,1018.03
2018-02-24T03:19:42.269Z,1018.11
2018-02-24T03:20:42.257Z,1018.03
2018-02-24T03:21:42.249Z,1018.05
2018-02-24T03:22:42.228Z,1018.05
2018-02-24T03:23:42.215Z,1018.05
2018-02-24T03:24:42.201Z,1018.08
2018-02-24T03:25:42.187Z,1018.07
2018-02-24T03:26:42.173Z,1018.09
2018-02-24T03:27:42.155Z,1018.06
2018-02-24T03:28:42.142Z,1018.09
2018-02-24T03:29:42.128Z,1018.10
2018-02-24T03:30:42.128Z,1018.11
2018-02-24T03:31:42.096Z,1018.14
2018-02-24T03:32:42.082Z,1018.11
2018-02-24T03:33:42.069Z,1018.12
2018-02-24T03:34:42.052Z,1018.16
2018-02-24T03:35:42.040Z,1018.22
2018-02-24T03:36:42.021Z,1018.19
2018-02-24T03:37:42.006Z,1018.22
2018-02-24T03:38:41.993Z,1018.18
2018-02-24T03:39:41.980Z,1018.22
2018-02-24T03:40:41.965Z,1018.18
2018-02-24T03:41:41.951Z,1018.18
2018-02-24T03:42:41.935Z,1018.19
2018-02-24T03:43:41.920Z,1018.22
2018-02-24T03:44:41.909Z,1018.19
2018-02-24T03:45:41.892Z,1018.16
2018-02-24T03:46:41.877Z,1018.17
2018-02-24T03:47:41.864Z,1018.19
2018-02-24T03:48:41.844Z,1018.15
2018-02-24T03:49:41.834Z,1018.20
2018-02-24T03:50:41.816Z,1018.20
2018-02-24T03:51:41.799Z,1018.18
2018-02-24T03:52:41.785Z,1018.25
2018-02-24T03:53:41.770Z,1018.17
2018-02-24T03:54:41.756Z,1018.21
2018-02-24T03:55:41.744Z,1018.23
2018-02-24T03:56:41.729Z,1018.24
2018-02-24T03:57:41.717Z,1018.26
2018-02-24T03:58:41.699Z,1018.29
2018-02-24T03:59:41.684Z,1018.25
2018-02-24T04:00:41.669Z,1018.34
2018-02-24T04:01:41.655Z,1018.37
2018-02-24T04:02:41.639Z,1018.38
2018-02-24T04:03:41.622Z,1018.42
2018-02-24T04:04:41.608Z,1018.40
2018-02-24T04:05:41.593Z,1018.42
2018-02-24T04:06:41.578Z,1018.41
2018-02-24T04:07:41.562Z,1018.38
2018-02-24T04:08:41.548Z,1018.44
2018-02-24T04:09:41.533Z,1018.39
2018-02-24T04:10:41.519Z,1018.45
2018-02-24T04:11:41.506Z,1018.46
2018-02-24T04:12:41.492Z,1018.47
2018-02-24T04:13:41.477Z,1018.44
2018-02-24T04:14:41.467Z,1018.40
2018-02-24T04:15:41.448Z,1018.43
2018-02-24T04:16:41.432Z,1018.43
2018-02-24T04:17:41.419Z,1018.43
2018-02-24T04:18:41.403Z,1018.40
2018-02-24T04:19:41.385Z,1018.36
2018-02-24T04:20:41.371Z,1018.42
2018-02-24T04:21:41.356Z,1018.38
2018-02-24T04:22:41.342Z,1018.41
2018-02-24T04:23:41.325Z,1018.38
2018-02-24T04:24:41.311Z,1018.39
2018-02-24T04:25:41.302Z,1018.36
2018-02-24T04:26:41.282Z,1018.32
2018-02-24T04:27:41.270Z,1018.34
2018-02-24T04:28:41.254Z,1018.31
2018-02-24T04:29:41.243Z,1018.30
2018-02-24T04:30:41.225Z,1018.25
2018-02-24T04:31:41.207Z,1018.24
2018-02-24T04:32:41.193Z,1018.29
2018-02-24T04:33:41.178Z,1018.30
2018-02-24T04:34:41.166Z,1018.34
2018-02-24T04:35:41.150Z,1018.32
2018-02-24T04:36:41.136Z,1018.33
2018-02-24T04:37:41.122Z,1018.36
2018-02-24T04:38:41.108Z,1018.39
2018-02-24T04:39:41.092Z,1018.37
2018-02-24T04:40:41.076Z,1018.31
2018-02-24T04:41:41.062Z,1018.41
2018-02-24T04:42:41.047Z,1018.36
2018-02-24T04:43:41.029Z,1018.36
2018-02-24T04:44:41.014Z,1018.30
2018-02-24T04:45:41.000Z,1018.36
2018-02-24T04:46:40.984Z,1018.32
2018-02-24T04:47:40.970Z,1018.30
2018-02-24T04:48:40.958Z,1018.35
2018-02-24T04:49:40.940Z,1018.34
2018-02-24T04:50:40.925Z,1018.36
2018-02-24T04:51:40.913Z,1018.35
2018-02-24T04:52:40.899Z,1018.33
2018-02-24T04:53:40.883Z,1018.34
2018-02-24T04:54:40.868Z,1018.36
2018-02-24T04:55:40.854Z,1018.37
2018-02-24T04:56:40.840Z,1018.36
2018-02-24T04:57:40.824Z,1018.37
2018-02-24T04:58:40.813Z,1018.29
2018-02-24T04:59:40.791Z,1018.38
2018-02-24T05:00:40.776Z,1018.32
2018-02-24T05:01:40.766Z,1018.35
2018-02-24T05:02:40.748Z,1018.39
2018-02-24T05:03:40.732Z,1018.35
2018-02-24T05:04:40.717Z,1018.34
2018-02-24T05:05:40.703Z,1018.29
2018-02-24T05:06:40.687Z,1018.32
2018-02-24T05:07:40.674Z,1018.39
2018-02-24T05:08:40.659Z,1018.37
2018-02-24T05:09:40.646Z,1018.42
2018-02-24T05:10:40.635Z,1018.40
2018-02-24T05:11:40.615Z,1018.45
2018-02-24T05:12:40.600Z,1018.45
2018-02-24T05:13:40.586Z,1018.45
2018-02-24T05:14:40.572Z,1018.41
2018-02-24T05:15:40.553Z,1018.41
2018-02-24T05:16:40.538Z,1018.41
2018-02-24T05:17:40.523Z,1018.43
2018-02-24T05:18:40.508Z,1018.41
2018-02-24T05:19:40.492Z,1018.43
2018-02-24T05:20:40.478Z,1018.43
2018-02-24T05:21:40.464Z,1018.41
2018-02-24T05:22:40.450Z,1018.43
2018-02-24T05:23:40.437Z,1018.42
2018-02-24T05:24:40.422Z,1018.48
2018-02-24T05:25:40.406Z,1018.38
2018-02-24T05:26:40.391Z,1018.40
2018-02-24T05:27:40.376Z,1018.36
2018-02-24T05:28:40.362Z,1018.43
2018-02-24T05:29:40.346Z,1018.44
2018-02-24T05:30:40.332Z,1018.49
2018-02-24T05:31:40.332Z,1018.54
2018-02-24T05:32:40.297Z,1018.53
2018-02-24T05:33:40.287Z,1018.49
2018-02-24T05:34:40.268Z,1018.49
2018-02-24T05:35:40.256Z,1018.47
2018-02-24T05:36:40.242Z,1018.55
2018-02-24T05:37:40.228Z,1018.43
2018-02-24T05:38:40.212Z,1018.44
2018-02-24T05:39:40.196Z,1018.54
2018-02-24T05:40:40.179Z,1018.56
2018-02-24T05:41:40.164Z,1018.47
2018-02-24T05:42:40.148Z,1018.47
2018-02-24T05:43:40.133Z,1018.54
2018-02-24T05:44:40.119Z,1018.60
2018-02-24T05:45:40.103Z,1018.47
2018-02-24T05:46:40.090Z,1018.51
2018-02-24T05:47:40.075Z,1018.45
2018-02-24T05:48:40.062Z,1018.52
2018-02-24T05:49:40.047Z,1018.52
2018-02-24T05:50:40.032Z,1018.51
2018-02-24T05:51:40.015Z,1018.53
2018-02-24T05:52:40.001Z,1018.51
2018-02-24T05:53:39.986Z,1018.68
2018-02-24T05:54:39.971Z,1018.49
2018-02-24T05:55:39.952Z,1018.58
2018-02-24T05:56:39.936Z,1018.63
2018-02-24T05:57:39.921Z,1018.81
2018-02-24T05:58:39.907Z,1018.64
2018-02-24T05:59:39.892Z,1018.68
2018-02-24T06:00:39.876Z,1018.65
2018-02-24T06:01:39.862Z,1018.68
2018-02-24T06:02:39.848Z,1018.62
2018-02-24T06:03:39.834Z,1018.65
2018-02-24T06:04:39.818Z,1018.66
2018-02-24T06:05:39.805Z,1018.65
2018-02-24T06:06:39.789Z,1018.67
2018-02-24T06:07:39.774Z,1018.68
2018-02-24T06:08:39.758Z,1018.65
2018-02-24T06:09:39.743Z,1018.75
2018-02-24T06:10:39.728Z,1018.75
2018-02-24T06:11:39.710Z,1018.67
2018-02-24T06:12:39.697Z,1018.73
2018-02-24T06:13:39.680Z,1018.74
2018-02-24T06:14:39.664Z,1018.64
2018-02-24T06:15:39.658Z,1018.75
2018-02-24T06:16:39.635Z,1018.79
2018-02-24T06:17:39.620Z,1018.73
2018-02-24T06:18:39.605Z,1018.74
2018-02-24T06:19:39.591Z,1018.79
2018-02-24T06:20:39.578Z,1018.71
2018-02-24T06:21:39.562Z,1018.74
2018-02-24T06:22:39.548Z,1018.79
2018-02-24T06:23:39.531Z,1018.81
2018-02-24T06:24:39.516Z,1018.79
2018-02-24T06:25:39.501Z,1018.77
2018-02-24T06:26:39.491Z,1018.80
2018-02-24T06:27:39.479Z,1018.82
2018-02-24T06:28:39.454Z,1018.82
2018-02-24T06:29:39.443Z,1018.87
2018-02-24T06:30:39.423Z,1018.92
2018-02-24T06:31:39.409Z,1018.88
2018-02-24T06:32:39.392Z,1018.99
2018-02-24T06:33:39.381Z,1018.97
2018-02-24T06:34:39.364Z,1018.90
2018-02-24T06:35:39.351Z,1019.00
2018-02-24T06:36:39.335Z,1018.96
2018-02-24T06:37:39.319Z,1019.01
2018-02-24T06:38:39.305Z,1018.98
2018-02-24T06:39:39.296Z,1019.06
2018-02-24T06:40:39.272Z,1019.10
2018-02-24T06:41:39.259Z,1019.08
2018-02-24T06:42:39.242Z,1019.07
2018-02-24T06:43:39.229Z,1019.14
2018-02-24T06:44:39.214Z,1019.10
2018-02-24T06:45:39.200Z,1019.19
2018-02-24T06:46:39.185Z,1019.10
2018-02-24T06:47:39.168Z,1019.14
2018-02-24T06:48:39.153Z,1019.15
2018-02-24T06:49:39.139Z,1019.24
2018-02-24T06:50:39.131Z,1019.14
2018-02-24T06:51:39.106Z,1019.30
2018-02-24T06:52:39.090Z,1019.26
2018-02-24T06:53:39.077Z,1019.37
2018-02-24T06:54:39.088Z,1019.34
2018-02-24T06:55:39.046Z,1019.50
2018-02-24T06:56:39.030Z,1019.45
2018-02-24T06:57:39.016Z,1019.52
2018-02-24T06:58:39.002Z,1019.53
2018-02-24T06:59:38.991Z,1019.54
2018-02-24T07:00:38.975Z,1019.56
2018-02-24T07:01:38.962Z,1019.63
2018-02-24T07:02:38.948Z,1019.67
2018-02-24T07:03:38.933Z,1019.61
2018-02-24T07:04:38.920Z,1019.70
2018-02-24T07:05:38.907Z,1019.86
2018-02-24T07:06:38.893Z,1019.82
2018-02-24T07:07:38.877Z,1019.62
2018-02-24T07:08:38.864Z,1019.38
2018-02-24T07:09:38.854Z,1019.30
2018-02-24T07:10:38.840Z,1019.28
2018-02-24T07:11:38.828Z,1019.33
2018-02-24T07:12:38.816Z,1019.31
2018-02-24T07:13:38.803Z,1019.21
2018-02-24T07:14:38.790Z,1019.34
2018-02-24T07:15:38.780Z,1019.32
2018-02-24T07:16:38.769Z,1019.44
2018-02-24T07:17:38.755Z,1019.61
2018-02-24T07:18:38.742Z,1019.78
2018-02-24T07:19:38.730Z,1019.87
2018-02-24T07:20:38.717Z,1019.89
2018-02-24T07:21:38.704Z,1019.96
2018-02-24T07:22:38.694Z,1020.05
2018-02-24T07:23:38.676Z,1019.90
2018-02-24T07:24:38.667Z,1020.05
2018-02-24T07:25:38.655Z,1020.11
2018-02-24T07:26:38.643Z,1020.07
2018-02-24T07:27:38.631Z,1020.19
2018-02-24T07:28:38.622Z,1020.08
2018-02-24T07:29:38.607Z,1020.20
2018-02-24T07:30:38.596Z,1020.26
2018-02-24T07:31:38.589Z,1020.11
2018-02-24T07:32:38.578Z,1020.28
2018-02-24T07:33:38.567Z,1020.15
2018-02-24T07:34:38.557Z,1020.19
2018-02-24T07:35:38.548Z,1020.17
2018-02-24T07:36:38.539Z,1020.30
2018-02-24T07:37:38.528Z,1020.25
2018-02-24T07:38:38.519Z,1020.30
2018-02-24T07:39:38.506Z,1020.27
2018-02-24T07:40:38.499Z,1020.37
2018-02-24T07:41:38.494Z,1020.40
2018-02-24T07:42:38.479Z,1020.46
2018-02-24T07:43:38.475Z,1020.40
2018-02-24T07:44:38.466Z,1020.42
2018-02-24T07:45:38.458Z,1020.45
2018-02-24T07:46:38.451Z,1020.44
2018-02-24T07:47:38.440Z,1020.41
2018-02-24T07:48:38.434Z,1020.43
2018-02-24T07:49:38.424Z,1020.49
2018-02-24T07:50:38.418Z,1020.46
2018-02-24T07:51:38.411Z,1020.48
2018-02-24T07:52:38.403Z,1020.50
2018-02-24T07:53:38.396Z,1020.56
2018-02-24T07:54:38.390Z,1020.64
2018-02-24T07:55:38.384Z,1020.63
2018-02-24T07:56:38.379Z,1020.11
2018-02-24T07:57:38.373Z,1019.94
2018-02-24T07:58:38.367Z,1019.97
2018-02-24T07:59:38.359Z,1020.11
2018-02-24T08:00:38.358Z,1020.00
2018-02-24T08:01:38.350Z,1020.03
2018-02-24T08:02:38.346Z,1019.98
2018-02-24T08:03:38.338Z,1020.07
2018-02-24T08:04:38.327Z,1020.02
2018-02-24T08:05:38.321Z,1020.03
2018-02-24T08:06:38.316Z,1020.06
2018-02-24T08:07:38.311Z,1019.99
2018-02-24T08:08:38.312Z,1020.15
2018-02-24T08:09:38.301Z,1020.10
2018-02-24T08:10:38.296Z,1020.24
2018-02-24T08:11:38.293Z,1020.05
2018-02-24T08:12:38.286Z,1020.06
2018-02-24T08:13:38.282Z,1020.07
2018-02-24T08:14:38.277Z,1020.07
2018-02-24T08:15:38.270Z,1020.19
2018-02-24T08:16:38.266Z,1020.07
2018-02-24T08:17:38.261Z,1020.13
2018-02-24T08:18:38.258Z,1020.15
2018-02-24T08:19:38.248Z,1020.11
2018-02-24T08:20:38.245Z,1020.17
2018-02-24T08:21:38.240Z,1020.16
2018-02-24T08:22:38.236Z,1020.21
2018-02-24T08:23:38.230Z,1020.16
2018-02-24T08:24:38.227Z,1020.19
2018-02-24T08:25:38.223Z,1020.12
2018-02-24T08:26:38.219Z,1020.22
2018-02-24T08:27:38.216Z,1020.35
2018-02-24T08:28:38.215Z,1020.22
2018-02-24T08:29:38.208Z,1020.39
2018-02-24T08:30:38.205Z,1020.23
2018-02-24T08:31:38.199Z,1020.23
2018-02-24T08:32:38.199Z,1020.39
2018-02-24T08:33:38.192Z,1020.27
2018-02-24T08:34:38.189Z,1020.24
2018-02-24T08:35:38.181Z,1020.40
2018-02-24T08:36:38.178Z,1020.32
2018-02-24T08:37:38.174Z,1020.26
2018-02-24T08:38:38.171Z,1020.32
2018-02-24T08:39:38.167Z,1020.57
2018-02-24T08:40:38.163Z,1020.28
2018-02-24T08:41:38.160Z,1020.33
2018-02-24T08:42:38.156Z,1020.26
2018-02-24T08:43:38.157Z,1020.47
2018-02-24T08:44:38.156Z,1020.26
2018-02-24T08:45:38.151Z,1020.35
2018-02-24T08:46:38.147Z,1020.26
2018-02-24T08:47:38.141Z,1020.28
2018-02-24T08:48:38.139Z,1020.29
2018-02-24T08:49:38.135Z,1020.27
2018-02-24T08:50:38.131Z,1020.37
2018-02-24T08:51:38.132Z,1020.44
2018-02-24T08:52:38.129Z,1020.45
2018-02-24T08:53:38.126Z,1020.36
2018-02-24T08:54:38.124Z,1020.42
2018-02-24T08:55:38.121Z,1020.52
2018-02-24T08:56:38.118Z,1020.55
2018-02-24T08:57:38.115Z,1020.41
2018-02-24T08:58:38.113Z,1020.44
2018-02-24T08:59:38.109Z,1020.49
2018-02-24T09:00:38.106Z,1020.45
2018-02-24T09:01:38.106Z,1020.50
2018-02-24T09:02:38.104Z,1020.53
2018-02-24T09:03:38.107Z,1020.69
2018-02-24T09:04:38.100Z,1020.49
2018-02-24T09:05:38.101Z,1020.44
2018-02-24T09:06:38.100Z,1020.48
2018-02-24T09:07:38.101Z,1020.45
2018-02-24T09:08:38.100Z,1020.46
2018-02-24T09:09:38.099Z,1020.42
2018-02-24T09:10:38.099Z,1020.58
2018-02-24T09:11:38.099Z,1020.48
2018-02-24T09:12:38.099Z,1020.53
2018-02-24T09:13:38.097Z,1020.58
2018-02-24T09:14:38.101Z,1020.55
2018-02-24T09:15:38.093Z,1020.62
2018-02-24T09:16:38.094Z,1020.51
2018-02-24T09:17:38.092Z,1020.61
2018-02-24T09:18:38.091Z,1020.57
2018-02-24T09:19:38.092Z,1020.61
2018-02-24T09:20:38.090Z,1020.64
2018-02-24T09:21:38.091Z,1020.61
2018-02-24T09:22:38.091Z,1020.60
2018-02-24T09:23:38.093Z,1020.66
2018-02-24T09:24:38.093Z,1020.65
2018-02-24T09:25:38.092Z,1020.62
2018-02-24T09:26:38.093Z,1020.75
2018-02-24T09:27:38.092Z,1020.72
2018-02-24T09:28:38.092Z,1020.77
2018-02-24T09:29:38.092Z,1020.71
2018-02-24T09:30:38.093Z,1020.72
2018-02-24T09:31:38.090Z,1020.80
2018-02-24T09:32:38.090Z,1020.86
2018-02-24T09:33:38.094Z,1020.80
2018-02-24T09:34:38.090Z,1020.76
2018-02-24T09:35:38.090Z,1020.87
2018-02-24T09:36:38.090Z,1020.89
2018-02-24T09:37:38.092Z,1020.89
2018-02-24T09:38:38.094Z,1020.97
2018-02-24T09:39:38.093Z,1021.19
2018-02-24T09:40:38.094Z,1021.10
2018-02-24T09:41:38.093Z,1021.03
2018-02-24T09:42:38.095Z,1021.11
2018-02-24T09:43:38.095Z,1021.10
2018-02-24T09:44:38.096Z,1021.22
2018-02-24T09:45:38.096Z,1021.27
2018-02-24T09:46:38.098Z,1021.43
2018-02-24T09:47:38.095Z,1021.39
2018-02-24T09:48:38.096Z,1021.38
2018-02-24T09:49:38.099Z,1021.38
2018-02-24T09:50:38.103Z,1021.28
2018-02-24T09:51:38.104Z,1021.35
2018-02-24T09:52:38.107Z,1021.25
2018-02-24T09:53:38.109Z,1021.19
2018-02-24T09:54:38.131Z,1021.29
2018-02-24T09:55:38.109Z,1021.40
2018-02-24T09:56:38.110Z,1021.35
2018-02-24T09:57:38.113Z,1021.38
2018-02-24T09:58:38.116Z,1021.31
2018-02-24T09:59:38.116Z,1021.19
2018-02-24T10:00:38.118Z,1021.16
2018-02-24T10:01:38.121Z,1021.40
2018-02-24T10:02:38.124Z,1021.31
2018-02-24T10:03:38.128Z,1021.24
2018-02-24T10:04:38.129Z,1021.12
2018-02-24T10:05:38.132Z,1021.00
2018-02-24T10:06:38.133Z,1020.83
2018-02-24T10:07:38.134Z,1020.87
2018-02-24T10:08:38.134Z,1020.85
2018-02-24T10:09:38.134Z,1020.87
2018-02-24T10:10:38.136Z,1020.93
2018-02-24T10:11:38.132Z,1021.13
2018-02-24T10:12:38.132Z,1020.96
2018-02-24T10:13:38.131Z,1020.97
2018-02-24T10:14:38.132Z,1020.91
2018-02-24T10:15:38.130Z,1021.02
2018-02-24T10:16:38.129Z,1020.95
2018-02-24T10:17:38.132Z,1021.02
2018-02-24T10:18:38.130Z,1020.94
2018-02-24T10:19:38.132Z,1021.08
2018-02-24T10:20:38.133Z,1021.10
2018-02-24T10:21:38.133Z,1020.95
2018-02-24T10:22:38.134Z,1021.02
2018-02-24T10:23:38.132Z,1020.92
2018-02-24T10:24:38.134Z,1021.13
2018-02-24T10:25:38.133Z,1021.00
2018-02-24T10:26:38.133Z,1020.94
2018-02-24T10:27:38.129Z,1020.93
2018-02-24T10:28:38.133Z,1020.96
2018-02-24T10:29:38.129Z,1020.99
2018-02-24T10:30:38.131Z,1020.96
2018-02-24T10:31:38.129Z,1021.07
2018-02-24T10:32:38.130Z,1021.08
2018-02-24T10:33:38.131Z,1021.07
2018-02-24T10:34:38.130Z,1021.02
2018-02-24T10:35:38.134Z,1021.07
2018-02-24T10:36:38.137Z,1021.05
2018-02-24T10:37:38.757Z,1021.06
2018-02-24T10:38:38.137Z,1021.04
2018-02-24T10:39:38.145Z,1021.06
2018-02-24T10:40:38.141Z,1021.05
2018-02-24T10:41:38.141Z,1021.10
2018-02-24T10:42:38.142Z,1021.08
2018-02-24T10:43:38.143Z,1021.20
2018-02-24T10:44:38.143Z,1021.02
2018-02-24T10:45:38.146Z,1021.06
2018-02-24T10:46:38.148Z,1020.97
2018-02-24T10:47:38.149Z,1021.04
2018-02-24T10:48:38.152Z,1021.05
2018-02-24T10:49:38.154Z,1021.11
2018-02-24T10:50:38.156Z,1021.03
2018-02-24T10:51:38.161Z,1021.10
2018-02-24T10:52:38.162Z,1021.16
2018-02-24T10:53:38.164Z,1021.06
2018-02-24T10:54:38.167Z,1021.07
2018-02-24T10:55:38.165Z,1021.01
2018-02-24T10:56:38.167Z,1020.99
2018-02-24T10:57:38.170Z,1021.08
2018-02-24T10:58:38.172Z,1021.00
2018-02-24T10:59:38.175Z,1021.21
2018-02-24T11:00:38.178Z,1021.14
2018-02-24T11:01:38.180Z,1021.08
2018-02-24T11:02:38.182Z,1021.03
2018-02-24T11:03:38.183Z,1021.03
2018-02-24T11:04:38.185Z,1021.07
2018-02-24T11:05:38.187Z,1021.02
2018-02-24T11:06:38.188Z,1021.05
2018-02-24T11:07:38.186Z,1021.02
2018-02-24T11:08:38.189Z,1021.01
2018-02-24T11:09:38.190Z,1020.99
2018-02-24T11:10:38.195Z,1020.96
2018-02-24T11:11:38.194Z,1021.04
2018-02-24T11:12:38.196Z,1020.97
2018-02-24T11:13:38.200Z,1021.08
2018-02-24T11:14:38.200Z,1021.12
2018-02-24T11:15:38.205Z,1020.94
2018-02-24T11:16:38.209Z,1021.07
2018-02-24T11:17:38.210Z,1021.07
2018-02-24T11:18:38.212Z,1020.91
2018-02-24T11:19:38.214Z,1020.95
2018-02-24T11:20:38.215Z,1020.90
2018-02-24T11:21:38.217Z,1020.83
2018-02-24T11:22:38.220Z,1020.90
2018-02-24T11:23:38.217Z,1020.92
2018-02-24T11:24:38.218Z,1020.86
2018-02-24T11:25:38.220Z,1020.77
2018-02-24T11:26:38.223Z,1020.81
2018-02-24T11:27:38.224Z,1020.77
2018-02-24T11:28:38.224Z,1020.84
2018-02-24T11:29:38.225Z,1020.81
2018-02-24T11:30:38.225Z,1020.79
2018-02-24T11:31:38.227Z,1020.79
2018-02-24T11:32:38.228Z,1020.78
2018-02-24T11:33:38.230Z,1020.88
2018-02-24T11:34:38.230Z,1020.87
2018-02-24T11:35:38.230Z,1020.77
2018-02-24T11:36:38.231Z,1020.87
2018-02-24T11:37:38.231Z,1020.82
2018-02-24T11:38:38.233Z,1020.73
2018-02-24T11:39:38.229Z,1020.72
2018-02-24T11:40:38.233Z,1020.72
2018-02-24T11:41:38.231Z,1020.62
2018-02-24T11:42:38.230Z,1020.65
2018-02-24T11:43:38.229Z,1020.47
2018-02-24T11:44:38.228Z,1020.56
2018-02-24T11:45:38.227Z,1020.55
2018-02-24T11:46:38.226Z,1020.56
2018-02-24T11:47:38.226Z,1020.48
2018-02-24T11:48:38.225Z,1020.52
2018-02-24T11:49:38.221Z,1020.53
2018-02-24T11:50:38.220Z,1020.42
2018-02-24T11:51:38.215Z,1020.54
2018-02-24T11:52:38.212Z,1020.42
2018-02-24T11:53:38.208Z,1020.61
2018-02-24T11:54:38.205Z,1020.57
2018-02-24T11:55:38.212Z,1020.47
2018-02-24T11:56:38.192Z,1020.51
2018-02-24T11:57:38.189Z,1020.50
2018-02-24T11:58:38.184Z,1020.49
2018-02-24T11:59:38.180Z,1020.38
2018-02-24T12:00:38.173Z,1020.49
2018-02-24T12:01:38.167Z,1020.39
2018-02-24T12:02:38.160Z,1020.38
2018-02-24T12:03:38.157Z,1020.41
2018-02-24T12:04:38.150Z,1020.35
2018-02-24T12:05:38.143Z,1020.40